Time;durP1;ratioP1;P1;durP2;ratioP2;P2;SDS_P1;SDS_P2;PMS_P1;PMS_P2;Temp;Humidity;BMP_temperature;BMP_pressure;BME280_temperature;BME280_humidity;BME280_pressure;Samples;Min_cycle;Max_cycle;Signal;HPM_P1;HPM_P2
2022/02/04 00:27:40;;;;;;;17.57;11.90;;;;;7.60;100809.00;;;;9600055;30;20273;-79
2022/02/04 00:32:45;;;;;;;17.03;11.17;;;;;7.60;100798.00;;;;9606171;30;20251;-79
2022/02/04 00:43:21;;;;;;;15.53;9.53;;;;;7.60;100786.00;;;;9629065;30;20304;-79
2022/02/04 01:26:06;;;;;;;7.90;6.47;;;;;7.80;100789.00;;;;9589647;30;20256;-80
2022/02/04 01:31:08;;;;;;;12.07;7.10;;;;;7.80;100802.00;;;;9616779;30;20240;-80
2022/02/04 01:36:11;;;;;;;9.40;6.67;;;;;7.80;100796.00;;;;9615243;30;20317;-80
2022/02/04 01:41:14;;;;;;;9.97;7.23;;;;;7.80;100794.00;;;;9600996;30;20670;-80
2022/02/04 01:46:16;;;;;;;10.50;7.27;;;;;7.80;100789.00;;;;9579766;30;20221;-80
2022/02/04 01:51:18;;;;;;;8.13;5.83;;;;;7.80;100782.00;;;;9593610;30;20220;-80
2022/02/04 01:56:20;;;;;;;7.33;5.97;;;;;7.80;100754.00;;;;9594512;30;20259;-80
2022/02/04 02:01:22;;;;;;;10.90;6.60;;;;;7.80;100769.00;;;;9609753;30;20308;-81
2022/02/04 02:06:57;;;;;;;8.73;5.93;;;;;7.90;100754.00;;;;9611300;30;20233;-81
2022/02/04 02:12:03;;;;;;;5.13;4.00;;;;;7.90;100755.00;;;;9596612;30;20221;-81
2022/02/04 02:33:16;;;;;;;6.47;4.13;;;;;7.90;100739.00;;;;9619808;30;20209;-80
2022/02/04 02:59:37;;;;;;;8.53;6.33;;;;;7.90;100715.00;;;;9612396;30;20237;-81
2022/02/04 03:04:39;;;;;;;8.90;6.07;;;;;7.90;100714.00;;;;9605297;30;20268;-81
2022/02/04 03:09:43;;;;;;;7.73;5.00;;;;;7.90;100718.00;;;;9617491;30;20216;-81
2022/02/04 03:14:45;;;;;;;9.87;5.63;;;;;7.90;100702.00;;;;9605207;30;20781;-80
2022/02/04 03:19:51;;;;;;;6.80;5.53;;;;;7.90;100713.00;;;;9617899;30;20761;-81
2022/02/04 03:24:58;;;;;;;6.27;4.80;;;;;7.90;100716.00;;;;9632400;30;20272;-81
2022/02/04 03:30:09;;;;;;;5.17;4.47;;;;;7.90;100722.00;;;;9618634;30;20216;-81
2022/02/04 03:35:18;;;;;;;6.23;4.77;;;;;7.90;100723.00;;;;9631692;30;20236;-81
2022/02/04 03:40:20;;;;;;;5.50;4.30;;;;;7.90;100723.00;;;;9622719;30;20918;-81
2022/02/04 03:45:23;;;;;;;7.50;4.47;;;;;7.90;100720.00;;;;9645084;30;20300;-81
2022/02/04 03:50:25;;;;;;;8.13;4.57;;;;;7.90;100715.00;;;;9612318;30;20216;-81
2022/02/04 03:55:27;;;;;;;6.93;3.90;;;;;7.90;100702.00;;;;9610166;30;20256;-82
2022/02/04 04:00:29;;;;;;;5.87;4.17;;;;;7.90;100693.00;;;;9610360;30;20209;-81
2022/02/04 04:05:31;;;;;;;7.23;4.90;;;;;7.90;100704.00;;;;9625081;30;20237;-81
2022/02/04 04:10:39;;;;;;;8.07;4.27;;;;;7.90;100694.00;;;;9611891;30;20216;-81
2022/02/04 04:15:41;;;;;;;6.77;4.67;;;;;7.90;100697.00;;;;9609838;30;20829;-81
2022/02/04 04:20:45;;;;;;;6.23;4.33;;;;;7.90;100711.00;;;;9595008;30;20740;-81
2022/02/04 04:25:47;;;;;;;6.10;4.00;;;;;7.90;100702.00;;;;9576593;30;20248;-82
2022/02/04 04:30:51;;;;;;;5.57;4.43;;;;;7.90;100702.00;;;;9590531;30;20304;-81
2022/02/04 04:35:53;;;;;;;6.00;4.20;;;;;7.90;100687.00;;;;9590884;30;20285;-81
2022/02/04 04:41:10;;;;;;;5.60;4.73;;;;;7.90;100693.00;;;;9592503;30;20218;-81
2022/02/04 04:46:39;;;;;;;8.77;4.70;;;;;8.00;100692.00;;;;9601083;30;20245;-82
2022/02/04 05:29:06;;;;;;;6.40;5.57;;;;;8.00;100657.00;;;;9621365;30;20286;-81
2022/02/04 05:34:08;;;;;;;7.17;5.20;;;;;8.00;100652.00;;;;9607816;30;20571;-81
2022/02/04 05:39:12;;;;;;;5.40;4.83;;;;;8.00;100651.00;;;;9621325;30;20271;-81
2022/02/04 05:44:15;;;;;;;5.07;4.27;;;;;8.00;100650.00;;;;9619371;30;20272;-81
2022/02/04 05:49:20;;;;;;;6.47;4.47;;;;;8.00;100653.00;;;;9606429;30;20244;-80
2022/02/04 05:54:37;;;;;;;5.67;4.67;;;;;7.90;100653.00;;;;9606605;30;20217;-81
2022/02/04 06:05:39;;;;;;;6.20;4.83;;;;;7.90;100655.00;;;;9615127;30;20264;-81
2022/02/04 06:26:32;;;;;;;6.97;4.87;;;;;7.90;100616.00;;;;9619853;30;20575;-80
2022/02/04 06:31:34;;;;;;;8.83;6.10;;;;;7.90;100616.00;;;;9605526;30;20213;-81
2022/02/04 06:36:36;;;;;;;8.80;6.17;;;;;7.90;100627.00;;;;9619107;30;20229;-80
2022/02/04 06:41:38;;;;;;;7.40;6.10;;;;;7.80;100626.00;;;;9605076;30;20213;-81
2022/02/04 06:46:40;;;;;;;7.53;5.80;;;;;7.70;100626.00;;;;9597242;30;20273;-80
2022/02/04 06:51:42;;;;;;;6.50;4.90;;;;;7.70;100619.00;;;;9585319;30;20324;-80
2022/02/04 06:56:44;;;;;;;6.87;6.17;;;;;7.60;100621.00;;;;9598378;30;20717;-81
2022/02/04 07:01:46;;;;;;;7.47;6.17;;;;;7.60;100627.00;;;;9583758;30;20631;-81
2022/02/04 07:06:55;;;;;;;7.70;6.10;;;;;7.60;100629.00;;;;9582759;30;20660;-81
2022/02/04 07:12:17;;;;;;;7.03;5.97;;;;;7.60;100626.00;;;;9582769;30;20213;-81
2022/02/04 07:17:40;;;;;;;6.07;5.43;;;;;7.60;100616.00;;;;9612467;30;20339;-81
2022/02/04 07:22:42;;;;;;;7.60;5.03;;;;;7.60;100611.00;;;;9631608;30;20209;-81
2022/02/04 07:27:45;;;;;;;6.63;5.67;;;;;7.70;100602.00;;;;9632296;30;20248;-81
2022/02/04 07:33:20;;;;;;;6.20;5.23;;;;;7.70;100595.00;;;;9618738;30;20213;-81
2022/02/04 07:43:35;;;;;;;5.67;5.07;;;;;7.80;100613.00;;;;9620850;30;20215;-81
2022/02/04 07:48:38;;;;;;;6.37;5.57;;;;;7.90;100603.00;;;;9621475;30;20582;-82
2022/02/04 07:53:46;;;;;;;6.60;4.43;;;;;7.90;100592.00;;;;9618826;30;20902;-78
2022/02/04 07:58:57;;;;;;;5.17;4.47;;;;;8.00;100607.00;;;;9574599;30;20321;-78
2022/02/04 08:04:16;;;;;;;5.63;4.73;;;;;8.10;100594.00;;;;9580297;30;20230;-78
2022/02/04 08:14:45;;;;;;;8.53;4.83;;;;;8.10;100583.00;;;;9573048;30;20216;-78
2022/02/04 08:30:44;;;;;;;5.90;4.67;;;;;8.40;100548.00;;;;9619707;30;20256;-78
2022/02/04 08:57:05;;;;;;;6.23;4.90;;;;;9.10;100542.00;;;;9591408;30;20303;-79
2022/02/04 09:02:16;;;;;;;6.77;5.27;;;;;9.10;100530.00;;;;9599270;30;20284;-79
2022/02/04 09:07:21;;;;;;;6.20;5.50;;;;;9.20;100521.00;;;;9632572;30;20241;-79
2022/02/04 09:18:34;;;;;;;7.47;5.33;;;;;9.60;100522.00;;;;9626333;30;20233;-79
2022/02/04 09:22:52;;;;;;;6.67;4.40;;;;;9.70;100507.00;;;;9634873;30;20595;-80
2022/02/04 09:27:54;;;;;;;6.20;5.20;;;;;9.80;100528.00;;;;9617652;30;20623;-79
2022/02/04 09:32:57;;;;;;;6.90;4.20;;;;;9.80;100517.00;;;;9575673;30;20236;-80
2022/02/04 09:37:59;;;;;;;5.20;4.43;;;;;9.90;100515.00;;;;9575278;30;20599;-79
2022/02/04 09:43:03;;;;;;;3.90;3.50;;;;;9.90;100513.00;;;;9603406;30;20293;-79
2022/02/04 09:48:11;;;;;;;6.67;3.20;;;;;9.90;100510.00;;;;9576267;30;20727;-79
2022/02/04 10:24:55;;;;;;;4.47;3.17;;;;;11.00;100436.00;;;;9584161;30;20213;-79
2022/02/04 10:30:01;;;;;;;5.57;3.27;;;;;11.10;100433.00;;;;9572928;30;20221;-79
2022/02/04 10:35:24;;;;;;;5.07;3.67;;;;;10.80;100432.00;;;;9614324;30;20218;-80
2022/02/04 10:40:44;;;;;;;4.67;3.40;;;;;10.30;100437.00;;;;9600407;30;20268;-79
2022/02/04 10:46:06;;;;;;;5.03;4.30;;;;;10.30;100419.00;;;;9613384;30;20216;-79
2022/02/04 11:02:04;;;;;;;6.43;5.20;;;;;10.20;100387.00;;;;9584154;30;20217;-80
2022/02/04 11:34:14;;;;;;;7.83;5.97;;;;;9.80;100313.00;;;;9580251;30;20248;-79
2022/02/04 11:54:54;;;;;;;8.13;5.80;;;;;9.80;100257.00;;;;9637429;30;20213;-79
2022/02/04 12:00:04;;;;;;;7.77;5.63;;;;;10.20;100240.00;;;;9616634;30;20583;-77
2022/02/04 12:05:08;;;;;;;7.77;5.87;;;;;10.40;100229.00;;;;9634109;30;20324;-78
2022/02/04 12:10:13;;;;;;;6.30;5.03;;;;;10.40;100225.00;;;;9634810;30;20220;-78
2022/02/04 12:15:30;;;;;;;5.67;4.40;;;;;10.50;100203.00;;;;9605107;30;20234;-78
2022/02/04 12:20:57;;;;;;;6.40;5.37;;;;;11.00;100197.00;;;;9593086;30;20240;-79
2022/02/04 12:26:09;;;;;;;7.47;4.90;;;;;11.60;100173.00;;;;9591951;30;20225;-78
2022/02/04 12:31:24;;;;;;;5.80;4.63;;;;;12.10;100179.00;;;;9633203;30;20754;-78
2022/02/04 12:36:29;;;;;;;5.93;4.10;;;;;11.80;100164.00;;;;9632347;30;20224;-79
2022/02/04 12:41:34;;;;;;;6.70;4.87;;;;;11.50;100135.00;;;;9622097;30;20213;-78
2022/02/04 12:46:41;;;;;;;3.63;3.27;;;;;12.20;100144.00;;;;9651060;30;20288;-78
2022/02/04 13:12:54;;;;;;;4.53;3.40;;;;;11.20;100143.00;;;;9617621;30;20225;-78
2022/02/04 13:17:57;;;;;;;4.50;3.27;;;;;11.00;100121.00;;;;9617262;30;20497;-77
2022/02/04 13:23:06;;;;;;;4.67;2.77;;;;;10.60;100123.00;;;;9614895;30;20223;-78
2022/02/04 13:28:22;;;;;;;4.57;2.73;;;;;10.10;100105.00;;;;9596942;30;20228;-78
2022/02/04 13:33:24;;;;;;;2.50;1.90;;;;;9.90;100115.00;;;;9604892;30;20243;-77
2022/02/04 13:38:42;;;;;;;3.27;1.70;;;;;9.70;100101.00;;;;9599421;30;20762;-78
2022/02/04 14:00:07;;;;;;;4.10;1.70;;;;;9.20;100099.00;;;;9611992;30;20289;-80
2022/02/04 14:05:10;;;;;;;2.30;1.27;;;;;9.10;100100.00;;;;9627507;30;20232;-80
2022/02/04 14:10:59;;;;;;;4.43;1.87;;;;;8.80;100111.00;;;;9593495;30;20217;-80
2022/02/04 14:15:58;;;;;;;8.07;1.63;;;;;8.60;100115.00;;;;9582450;30;20217;-79
2022/02/04 14:21:02;;;;;;;3.63;1.43;;;;;8.50;100122.00;;;;9614447;30;20272;-80
2022/02/04 14:26:09;;;;;;;1.73;1.07;;;;;8.50;100128.00;;;;9614395;30;20243;-78
2022/02/04 14:31:32;;;;;;;3.30;1.40;;;;;8.40;100147.00;;;;9616282;30;20222;-79
2022/02/04 15:08:16;;;;;;;1.80;0.60;;;;;5.40;100398.00;;;;9615635;30;20287;-80
2022/02/04 15:13:18;;;;;;;6.47;0.93;;;;;5.40;100428.00;;;;9614031;30;20686;-79
2022/02/04 15:18:22;;;;;;;1.43;0.50;;;;;5.40;100439.00;;;;9600908;30;20746;-78
2022/02/04 15:23:24;;;;;;;0.73;0.40;;;;;5.20;100436.00;;;;9615266;30;20205;-78
2022/02/04 15:33:36;;;;;;;0.50;0.50;;;;;5.00;100498.00;;;;9615540;30;20637;-79
2022/02/04 15:38:38;;;;;;;3.00;1.70;;;;;5.00;100497.00;;;;9615309;30;20242;-78
2022/02/04 15:43:41;;;;;;;4.27;3.47;;;;;4.90;100537.00;;;;9620893;30;20253;-78
2022/02/04 15:49:08;;;;;;;6.30;2.30;;;;;5.00;100539.00;;;;9612885;30;20210;-79
2022/02/04 16:04:23;;;;;;;2.97;1.40;;;;;5.20;100588.00;;;;9590323;30;20280;-78
2022/02/04 16:09:25;;;;;;;2.10;1.37;;;;;5.10;100599.00;;;;9620006;30;20221;-79
2022/02/04 16:14:41;;;;;;;2.83;1.40;;;;;5.00;100599.00;;;;9599944;30;20217;-79
2022/02/04 16:19:54;;;;;;;2.50;1.53;;;;;4.70;100609.00;;;;9603724;30;20301;-80
2022/02/04 16:30:11;;;;;;;1.37;1.13;;;;;4.40;100650.00;;;;9616895;30;20590;-79
2022/02/04 16:35:14;;;;;;;4.90;2.37;;;;;4.30;100654.00;;;;9600521;30;20754;-81
2022/02/04 16:40:19;;;;;;;12.93;3.30;;;;;4.30;100672.00;;;;9586656;30;20774;-79
2022/02/04 16:45:23;;;;;;;5.97;2.10;;;;;4.30;100677.00;;;;9615995;30;20316;-79
2022/02/04 16:50:27;;;;;;;12.60;1.97;;;;;4.20;100695.00;;;;9601546;30;20217;-79
2022/02/04 16:55:29;;;;;;;4.93;1.70;;;;;4.10;100715.00;;;;9602510;30;20726;-79
2022/02/04 17:00:31;;;;;;;6.17;2.07;;;;;4.00;100732.00;;;;9615812;30;20324;-79
2022/02/04 17:05:41;;;;;;;6.43;2.10;;;;;3.90;100758.00;;;;9615868;30;20248;-79
2022/02/04 17:10:49;;;;;;;7.30;2.00;;;;;3.80;100768.00;;;;9587690;30;20221;-79
2022/02/04 17:15:51;;;;;;;5.90;2.20;;;;;3.90;100775.00;;;;9588216;30;20213;-79
2022/02/04 17:20:53;;;;;;;4.90;2.43;;;;;4.00;100798.00;;;;9589084;30;20249;-79
2022/02/04 17:25:57;;;;;;;6.53;2.67;;;;;4.10;100806.00;;;;9601895;30;20280;-78
2022/02/04 17:31:00;;;;;;;11.23;3.00;;;;;4.20;100811.00;;;;9615475;30;20221;-79
2022/02/04 17:36:02;;;;;;;6.27;1.90;;;;;4.30;100828.00;;;;9615125;30;20205;-78
2022/02/04 17:41:06;;;;;;;6.83;2.13;;;;;4.30;100819.00;;;;9615442;30;20237;-79
2022/02/04 17:46:08;;;;;;;9.33;2.67;;;;;4.30;100838.00;;;;9613706;30;20306;-79
2022/02/04 17:51:20;;;;;;;5.63;2.23;;;;;4.20;100856.00;;;;9600052;30;20270;-79
2022/02/04 17:56:49;;;;;;;8.90;2.27;;;;;4.10;100858.00;;;;9613801;30;20245;-79
2022/02/04 18:02:06;;;;;;;10.17;2.87;;;;;4.00;100876.00;;;;9613511;30;20264;-79
2022/02/04 18:07:13;;;;;;;5.43;2.97;;;;;3.90;100874.00;;;;9599082;30;20276;-81
2022/02/04 18:12:24;;;;;;;11.70;3.60;;;;;3.90;100893.00;;;;9586512;30;20496;-80
2022/02/04 18:17:28;;;;;;;7.13;2.50;;;;;3.90;100897.00;;;;9631871;30;20243;-80
2022/02/04 18:22:30;;;;;;;8.60;2.97;;;;;3.90;100902.00;;;;9651297;30;20208;-79
2022/02/04 18:27:33;;;;;;;6.43;2.83;;;;;3.90;100903.00;;;;9648721;30;20271;-79
2022/02/04 18:32:36;;;;;;;14.17;2.73;;;;;4.00;100910.00;;;;9649262;30;20267;-80
2022/02/04 18:37:42;;;;;;;12.20;3.60;;;;;3.90;100919.00;;;;9634370;30;20739;-80
2022/02/04 18:47:56;;;;;;;7.47;2.87;;;;;3.90;100925.00;;;;9627484;30;20256;-80
2022/02/04 18:58:07;;;;;;;9.77;2.73;;;;;3.90;100932.00;;;;9613107;30;20735;-81
2022/02/04 19:03:16;;;;;;;7.00;2.60;;;;;3.90;100940.00;;;;9612943;30;20247;-81
2022/02/04 19:08:25;;;;;;;8.90;3.37;;;;;3.90;100952.00;;;;9627196;30;20225;-81
2022/02/04 19:13:37;;;;;;;13.47;3.70;;;;;3.80;100948.00;;;;9586066;30;20269;-80
2022/02/04 19:19:00;;;;;;;8.33;3.20;;;;;3.70;100960.00;;;;9598119;30;20239;-80
2022/02/04 19:24:03;;;;;;;8.20;3.33;;;;;3.60;100963.00;;;;9598811;30;20702;-80
2022/02/04 19:29:07;;;;;;;14.30;4.40;;;;;3.50;100978.00;;;;9598791;30;20208;-80
2022/02/04 19:34:08;;;;;;;13.17;6.03;;;;;3.50;100983.00;;;;9612206;30;20228;-81
2022/02/04 19:39:11;;;;;;;8.83;3.67;;;;;3.50;100968.00;;;;9598431;30;20362;-80
2022/02/04 19:44:13;;;;;;;10.70;4.30;;;;;3.70;100985.00;;;;9627201;30;20260;-80
2022/02/04 19:49:20;;;;;;;9.40;4.13;;;;;3.80;100985.00;;;;9599068;30;20213;-80
2022/02/04 20:26:10;;;;;;;8.67;3.60;;;;;3.80;101011.00;;;;9603630;30;20284;-80
2022/02/04 20:31:13;;;;;;;9.63;3.97;;;;;3.90;101021.00;;;;9617890;30;20217;-80
2022/02/04 20:36:15;;;;;;;7.77;3.77;;;;;4.00;101032.00;;;;9589906;30;20235;-79
2022/02/04 20:41:23;;;;;;;4.70;2.63;;;;;4.20;101064.00;;;;9589890;30;20323;-80
2022/02/04 20:46:25;;;;;;;9.17;3.47;;;;;4.40;101124.00;;;;9583443;30;20316;-81
2022/02/04 20:51:27;;;;;;;3.17;2.30;;;;;4.10;101117.00;;;;9584753;30;20253;-81
2022/02/04 20:56:28;;;;;;;3.70;2.50;;;;;3.70;101104.00;;;;9587063;30;20978;-82
2022/02/04 21:01:30;;;;;;;4.23;2.67;;;;;3.50;101111.00;;;;9585820;30;20229;-81
2022/02/04 21:06:50;;;;;;;5.83;2.80;;;;;3.50;101116.00;;;;9584860;30;20234;-81
2022/02/04 21:17:19;;;;;;;4.77;2.60;;;;;3.30;101102.00;;;;9614088;30;20564;-80
2022/02/04 21:22:22;;;;;;;4.47;2.43;;;;;3.20;101107.00;;;;9598387;30;20239;-81
2022/02/04 21:27:26;;;;;;;4.60;2.93;;;;;3.20;101126.00;;;;9618369;30;20603;-81
2022/02/04 21:32:28;;;;;;;5.73;3.17;;;;;3.10;101125.00;;;;9617888;30;20594;-81
2022/02/04 21:37:30;;;;;;;5.33;3.80;;;;;3.00;101126.00;;;;9619347;30;20276;-81
2022/02/04 21:42:32;;;;;;;9.87;4.70;;;;;2.90;101131.00;;;;9633871;30;20283;-81
2022/02/04 21:47:43;;;;;;;8.07;5.03;;;;;2.90;101131.00;;;;9598204;30;20264;-80
2022/02/04 21:52:46;;;;;;;9.17;4.57;;;;;2.90;101144.00;;;;9611673;30;20535;-81
2022/02/04 21:57:48;;;;;;;10.57;5.23;;;;;3.00;101145.00;;;;9603115;30;20255;-81
2022/02/04 22:02:50;;;;;;;9.53;4.60;;;;;3.10;101158.00;;;;9629776;30;20228;-80
2022/02/04 22:08:00;;;;;;;13.77;5.40;;;;;3.20;101157.00;;;;9630506;30;20245;-81
2022/02/04 22:13:25;;;;;;;11.47;3.90;;;;;3.10;101161.00;;;;9618210;30;20304;-81
2022/02/04 22:23:49;;;;;;;9.20;4.47;;;;;3.30;101178.00;;;;9630385;30;20221;-80
2022/02/04 22:28:52;;;;;;;10.87;3.80;;;;;3.40;101183.00;;;;9616921;30;20224;-81
2022/02/04 22:34:04;;;;;;;9.10;4.50;;;;;3.30;101177.00;;;;9616602;30;20280;-80
2022/02/04 22:39:18;;;;;;;9.20;3.60;;;;;3.30;101187.00;;;;9616027;30;20237;-81
2022/02/04 23:00:24;;;;;;;12.37;4.07;;;;;2.90;101208.00;;;;9600954;30;20276;-81
2022/02/04 23:05:26;;;;;;;9.07;3.30;;;;;2.90;101219.00;;;;9600575;30;20260;-80
2022/02/04 23:10:28;;;;;;;11.10;3.80;;;;;2.90;101225.00;;;;9600937;30;20215;-80
2022/02/04 23:15:37;;;;;;;6.70;3.67;;;;;2.90;101233.00;;;;9603399;30;20220;-80
2022/02/04 23:20:40;;;;;;;10.40;4.50;;;;;2.80;101232.00;;;;9583041;30;20693;-80
2022/02/04 23:25:48;;;;;;;8.70;3.40;;;;;2.80;101238.00;;;;9577713;30;20304;-80
2022/02/04 23:31:38;;;;;;;8.10;3.90;;;;;2.90;101247.00;;;;9603167;30;20256;-78
2022/02/04 23:52:10;;;;;;;10.83;3.80;;;;;2.80;101262.00;;;;9621036;30;20216;-81
2022/02/04 23:57:14;;;;;;;6.60;3.90;;;;;2.80;101272.00;;;;9617724;30;20241;-81
